createdAt,value
2023-04-11T00:00:39.072Z,42.00
2023-04-11T00:01:41.667Z,42.00
2023-04-11T00:02:46.899Z,42.00
2023-04-11T00:03:49.881Z,42.20
2023-04-11T00:04:55.663Z,42.10
2023-04-11T00:05:59.404Z,42.30
2023-04-11T00:07:01.957Z,42.20
2023-04-11T00:08:05.588Z,42.30
2023-04-11T00:09:08.890Z,42.30
2023-04-11T00:10:11.414Z,42.50
2023-04-11T00:11:15.313Z,42.60
2023-04-11T00:12:17.868Z,42.60
2023-04-11T00:13:20.399Z,42.90
2023-04-11T00:14:23.558Z,42.70
2023-04-11T00:15:26.705Z,42.70
2023-04-11T00:16:29.315Z,42.90
2023-04-11T00:17:31.903Z,42.80
2023-04-11T00:18:36.320Z,42.90
2023-04-11T00:19:39.456Z,42.90
2023-04-11T00:20:42.039Z,43.00
2023-04-11T00:21:45.256Z,43.20
2023-04-11T00:22:47.908Z,43.20
2023-04-11T00:23:54.573Z,43.60
2023-04-11T00:24:57.085Z,44.30
2023-04-11T00:25:59.707Z,44.10
2023-04-11T00:27:02.507Z,44.40
2023-04-11T00:28:05.107Z,44.10
2023-04-11T00:29:07.490Z,44.40
2023-04-11T00:30:10.487Z,44.50
2023-04-11T00:31:13.215Z,44.50
2023-04-11T00:32:16.243Z,44.70
2023-04-11T00:33:18.672Z,44.90
2023-04-11T00:34:24.217Z,45.00
2023-04-11T00:35:26.732Z,45.20
2023-04-11T00:36:29.245Z,45.50
2023-04-11T00:37:36.207Z,45.70
2023-04-11T00:38:39.519Z,45.90
2023-04-11T00:39:42.045Z,46.00
2023-04-11T00:40:44.822Z,46.20
2023-04-11T00:41:47.485Z,46.40
2023-04-11T00:42:49.996Z,46.60
2023-04-11T00:43:54.327Z,46.60
2023-04-11T00:44:56.819Z,46.90
2023-04-11T00:45:59.798Z,47.20
2023-04-11T00:47:06.506Z,47.30
2023-04-11T00:48:09.088Z,47.70
2023-04-11T00:49:12.553Z,47.70
2023-04-11T00:50:15.990Z,47.90
2023-04-11T00:51:20.162Z,48.00
2023-04-11T00:52:22.830Z,48.00
2023-04-11T00:53:25.727Z,47.90
2023-04-11T00:54:30.186Z,48.10
2023-04-11T00:55:34.154Z,48.60
2023-04-11T00:56:36.902Z,48.70
2023-04-11T00:57:39.627Z,48.60
2023-04-11T00:58:42.849Z,48.50
2023-04-11T00:59:48.423Z,48.30
2023-04-11T01:00:51.452Z,48.00
2023-04-11T01:01:54.121Z,47.70
2023-04-11T01:02:56.820Z,47.70
2023-04-11T01:04:01.006Z,47.90
2023-04-11T01:05:05.989Z,47.70
2023-04-11T01:06:11.214Z,47.60
2023-04-11T01:07:15.464Z,47.90
2023-04-11T01:08:19.700Z,47.80
2023-04-11T01:09:25.303Z,47.90
2023-04-11T01:10:30.885Z,48.00
2023-04-11T01:11:34.484Z,48.00
2023-04-11T01:12:37.568Z,48.10
2023-04-11T01:13:41.484Z,48.30
2023-04-11T01:14:47.704Z,48.60
2023-04-11T01:15:50.271Z,48.20
2023-04-11T01:16:52.990Z,48.10
2023-04-11T01:17:57.939Z,48.30
2023-04-11T01:19:00.507Z,49.00
2023-04-11T01:20:05.498Z,48.80
2023-04-11T01:21:08.730Z,48.60
2023-04-11T01:22:13.141Z,48.20
2023-04-11T01:23:23.309Z,47.90
2023-04-11T01:24:26.015Z,48.20
2023-04-11T01:25:28.472Z,47.60
2023-04-11T01:26:31.176Z,47.20
2023-04-11T01:27:34.358Z,47.30
2023-04-11T01:28:36.736Z,47.30
2023-04-11T01:29:40.671Z,47.30
2023-04-11T01:30:43.189Z,47.20
2023-04-11T01:31:46.434Z,47.10
2023-04-11T01:32:50.644Z,46.90
2023-04-11T01:33:53.294Z,47.00
2023-04-11T01:34:58.096Z,47.20
2023-04-11T01:36:00.603Z,47.20
2023-04-11T01:37:03.476Z,47.00
2023-04-11T01:38:06.307Z,47.00
2023-04-11T01:39:08.823Z,46.90
2023-04-11T01:40:18.859Z,46.90
2023-04-11T01:41:22.280Z,46.90
2023-04-11T01:42:25.936Z,47.40
2023-04-11T01:43:28.335Z,46.90
2023-04-11T01:44:33.297Z,47.00
2023-04-11T01:45:39.974Z,46.90
2023-04-11T01:46:43.516Z,46.90
2023-04-11T01:47:46.413Z,46.90
2023-04-11T01:48:50.860Z,47.00
2023-04-11T01:49:53.744Z,46.90
2023-04-11T01:50:57.290Z,46.70
2023-04-11T01:51:59.729Z,46.70
2023-04-11T01:53:02.238Z,46.70
2023-04-11T01:54:05.805Z,46.70
2023-04-11T01:55:08.637Z,46.60
2023-04-11T01:56:14.236Z,46.30
2023-04-11T01:57:16.952Z,46.80
2023-04-11T01:58:19.284Z,47.20
2023-04-11T01:59:21.776Z,47.60
2023-04-11T02:00:24.310Z,47.70
2023-04-11T02:01:27.974Z,47.80
2023-04-11T02:02:30.508Z,48.10
2023-04-11T02:03:33.094Z,48.20
2023-04-11T02:04:36.775Z,48.50
2023-04-11T02:05:39.613Z,48.90
2023-04-11T02:06:41.999Z,49.00
2023-04-11T02:07:45.224Z,49.00
2023-04-11T02:08:53.604Z,49.20
2023-04-11T02:09:57.655Z,49.40
2023-04-11T02:11:00.226Z,49.30
2023-04-11T02:12:02.816Z,49.40
2023-04-11T02:13:05.192Z,49.30
2023-04-11T02:14:09.807Z,49.40
2023-04-11T02:15:12.336Z,49.50
2023-04-11T02:16:15.207Z,49.70
2023-04-11T02:17:18.478Z,49.50
2023-04-11T02:18:22.091Z,49.60
2023-04-11T02:19:26.033Z,49.70
2023-04-11T02:20:29.020Z,49.70
2023-04-11T02:21:32.988Z,49.90
2023-04-11T02:22:35.361Z,49.90
2023-04-11T02:23:38.110Z,50.00
2023-04-11T02:24:42.281Z,50.10
2023-04-11T02:25:44.899Z,49.90
2023-04-11T02:26:50.436Z,49.80
2023-04-11T02:27:53.350Z,49.80
2023-04-11T02:28:56.029Z,49.90
2023-04-11T02:30:00.104Z,50.20
2023-04-11T02:31:03.474Z,50.40
2023-04-11T02:32:06.084Z,50.90
2023-04-11T02:33:08.676Z,51.00
2023-04-11T02:34:11.145Z,50.70
2023-04-11T02:35:13.476Z,50.70
2023-04-11T02:36:16.827Z,50.70
2023-04-11T02:37:19.583Z,50.70
2023-04-11T02:38:22.121Z,50.60
2023-04-11T02:39:24.571Z,50.90
2023-04-11T02:40:27.044Z,50.60
2023-04-11T02:41:29.589Z,50.50
2023-04-11T02:42:31.998Z,50.40
2023-04-11T02:43:34.750Z,50.50
2023-04-11T02:44:37.228Z,50.60
2023-04-11T02:45:40.109Z,50.60
2023-04-11T02:46:43.801Z,50.50
2023-04-11T02:47:46.690Z,50.50
2023-04-11T02:48:49.553Z,50.40
2023-04-11T02:49:51.981Z,50.50
2023-04-11T02:50:59.768Z,50.50
2023-04-11T02:52:02.433Z,50.60
2023-04-11T02:53:05.320Z,50.50
2023-04-11T02:54:08.465Z,50.40
2023-04-11T02:55:13.863Z,50.40
2023-04-11T02:56:19.006Z,50.20
2023-04-11T02:57:23.706Z,50.20
2023-04-11T02:58:28.822Z,50.10
2023-04-11T02:59:33.882Z,50.10
2023-04-11T03:00:38.146Z,50.10
2023-04-11T03:01:45.077Z,50.20
2023-04-11T03:02:49.140Z,50.20
2023-04-11T03:03:55.816Z,50.00
2023-04-11T03:05:04.074Z,49.90
2023-04-11T03:06:09.142Z,49.70
2023-04-11T03:07:13.092Z,49.80
2023-04-11T03:08:15.855Z,49.70
2023-04-11T03:09:25.601Z,49.60
2023-04-11T03:10:28.041Z,49.40
2023-04-11T03:11:31.506Z,49.40
2023-04-11T03:12:34.271Z,49.50
2023-04-11T03:13:39.732Z,49.30
2023-04-11T03:14:42.190Z,49.30
2023-04-11T03:15:45.273Z,49.40
2023-04-11T03:16:48.620Z,49.50
2023-04-11T03:17:51.105Z,49.30
2023-04-11T03:18:53.740Z,49.40
2023-04-11T03:19:56.383Z,49.40
2023-04-11T03:20:59.301Z,49.60
2023-04-11T03:22:02.280Z,49.70
2023-04-11T03:23:04.725Z,49.70
2023-04-11T03:24:07.597Z,50.00
2023-04-11T03:25:10.115Z,49.80
2023-04-11T03:26:14.303Z,49.80
2023-04-11T03:27:18.403Z,50.00
2023-04-11T03:28:23.240Z,49.90
2023-04-11T03:29:26.014Z,49.70
2023-04-11T03:30:43.458Z,49.70
2023-04-11T03:31:48.974Z,49.70
2023-04-11T03:32:52.939Z,49.80
2023-04-11T03:33:55.601Z,49.40
2023-04-11T03:35:01.895Z,49.00
2023-04-11T03:36:05.175Z,48.10
2023-04-11T03:37:07.598Z,47.70
2023-04-11T03:38:12.099Z,47.40
2023-04-11T03:39:14.593Z,46.90
2023-04-11T03:40:18.494Z,46.50
2023-04-11T03:41:25.263Z,46.60
2023-04-11T03:42:27.821Z,46.60
2023-04-11T03:43:34.917Z,47.20
2023-04-11T03:44:37.755Z,47.70
2023-04-11T03:45:40.249Z,47.10
2023-04-11T03:46:49.927Z,46.70
2023-04-11T03:47:52.626Z,46.70
2023-04-11T03:48:58.810Z,46.00
2023-04-11T03:50:03.858Z,45.60
2023-04-11T03:51:13.199Z,45.50
2023-04-11T03:52:25.779Z,45.30
2023-04-11T03:53:28.315Z,45.20
2023-04-11T03:54:37.532Z,45.10
2023-04-11T03:55:41.420Z,45.00
2023-04-11T03:56:45.276Z,44.70
2023-04-11T03:57:54.672Z,44.60
2023-04-11T03:58:57.288Z,44.50
2023-04-11T04:00:07.584Z,44.50
2023-04-11T04:01:17.556Z,44.50
2023-04-11T04:02:21.319Z,44.70
2023-04-11T04:03:27.697Z,44.30
2023-04-11T04:04:34.917Z,44.30
2023-04-11T04:05:53.350Z,44.90
2023-04-11T04:06:57.665Z,44.40
2023-04-11T04:08:07.714Z,44.80
2023-04-11T04:09:17.413Z,44.40
2023-04-11T04:10:24.073Z,44.50
2023-04-11T04:11:28.260Z,44.70
2023-04-11T04:12:32.359Z,44.40
2023-04-11T04:13:48.639Z,44.30
2023-04-11T04:14:53.581Z,44.80
2023-04-11T04:15:56.133Z,44.60
2023-04-11T04:17:02.795Z,44.60
2023-04-11T04:18:06.690Z,44.40
2023-04-11T04:19:27.553Z,44.50
2023-04-11T04:20:30.267Z,44.30
2023-04-11T04:21:38.086Z,44.30
2023-04-11T04:22:41.067Z,44.10
2023-04-11T04:23:47.746Z,44.00
2023-04-11T04:25:19.986Z,43.90
2023-04-11T04:26:25.145Z,44.00
2023-04-11T04:27:44.290Z,43.90
2023-04-11T04:28:48.372Z,43.80
2023-04-11T04:30:03.982Z,44.10
2023-04-11T04:31:29.755Z,44.20
2023-04-11T04:32:41.136Z,44.40
2023-04-11T04:33:46.632Z,44.40
2023-04-11T04:34:57.718Z,44.20
2023-04-11T04:36:18.320Z,44.20
2023-04-11T04:37:24.601Z,44.20
2023-04-11T04:38:38.520Z,44.00
2023-04-11T04:39:44.041Z,44.20
2023-04-11T04:40:54.697Z,44.10
2023-04-11T04:42:01.548Z,43.90
2023-04-11T04:43:18.708Z,44.00
2023-04-11T04:44:28.741Z,44.80
2023-04-11T04:45:34.656Z,45.20
2023-04-11T04:46:37.864Z,45.10
2023-04-11T04:47:42.610Z,45.00
2023-04-11T04:48:45.639Z,44.80
2023-04-11T04:49:48.388Z,44.80
2023-04-11T04:50:51.748Z,44.90
2023-04-11T04:51:55.441Z,44.80
2023-04-11T04:52:58.212Z,44.70
2023-04-11T04:54:00.678Z,44.70
2023-04-11T04:55:03.966Z,44.90
2023-04-11T04:56:07.334Z,44.80
2023-04-11T04:57:14.158Z,45.00
2023-04-11T04:58:16.923Z,44.60
2023-04-11T04:59:19.479Z,44.40
2023-04-11T05:00:28.152Z,44.30
2023-04-11T05:01:35.417Z,44.20
2023-04-11T05:02:40.592Z,44.10
2023-04-11T05:03:46.710Z,44.10
2023-04-11T05:04:56.126Z,44.10
2023-04-11T05:05:59.548Z,44.00
2023-04-11T05:07:02.149Z,44.10
2023-04-11T05:08:08.767Z,44.10
2023-04-11T05:09:12.666Z,43.40
2023-04-11T05:10:15.266Z,44.90
2023-04-11T05:11:19.469Z,44.30
2023-04-11T05:12:26.908Z,43.60
2023-04-11T05:13:34.454Z,44.60
2023-04-11T05:14:38.394Z,44.30
2023-04-11T05:15:48.171Z,44.20
2023-04-11T05:16:51.280Z,44.30
2023-04-11T05:17:54.348Z,44.20
2023-04-11T05:18:57.095Z,44.20
2023-04-11T05:19:59.840Z,44.20
2023-04-11T05:21:06.603Z,44.10
2023-04-11T05:22:13.191Z,43.80
2023-04-11T05:23:20.582Z,43.80
2023-04-11T05:24:24.168Z,43.80
2023-04-11T05:25:27.123Z,43.80
2023-04-11T05:26:31.656Z,43.70
2023-04-11T05:27:34.342Z,43.70
2023-04-11T05:28:37.898Z,43.70
2023-04-11T05:29:46.319Z,43.70
2023-04-11T05:30:50.916Z,43.80
2023-04-11T05:31:53.571Z,43.70
2023-04-11T05:32:56.360Z,43.70
2023-04-11T05:33:59.253Z,43.70
2023-04-11T05:35:04.251Z,43.70
2023-04-11T05:36:14.897Z,43.70
2023-04-11T05:37:17.652Z,43.80
2023-04-11T05:38:20.793Z,43.80
2023-04-11T05:39:23.564Z,43.90
2023-04-11T05:40:28.370Z,42.80
2023-04-11T05:41:30.793Z,43.90
2023-04-11T05:42:33.127Z,45.00
2023-04-11T05:43:35.625Z,45.30
2023-04-11T05:44:40.075Z,45.60
2023-04-11T05:45:47.513Z,45.60
2023-04-11T05:46:51.490Z,45.50
2023-04-11T05:47:53.959Z,45.40
2023-04-11T05:48:59.317Z,45.30
2023-04-11T05:50:01.928Z,45.20
2023-04-11T05:51:05.657Z,45.00
2023-04-11T05:52:10.240Z,44.80
2023-04-11T05:53:12.929Z,45.30
2023-04-11T05:54:32.793Z,45.00
2023-04-11T05:55:35.428Z,45.20
2023-04-11T05:56:39.753Z,45.00
2023-04-11T05:57:42.158Z,45.00
2023-04-11T05:58:44.533Z,44.30
2023-04-11T05:59:49.762Z,43.50
2023-04-11T06:00:52.220Z,44.60
2023-04-11T06:01:54.821Z,45.60
2023-04-11T06:03:00.034Z,45.70
2023-04-11T06:04:02.982Z,45.40
2023-04-11T06:05:06.033Z,45.40
2023-04-11T06:06:08.685Z,45.10
2023-04-11T06:07:11.422Z,44.90
2023-04-11T06:08:14.076Z,44.80
2023-04-11T06:09:17.839Z,44.80
2023-04-11T06:10:20.329Z,44.80
2023-04-11T06:11:23.310Z,44.80
2023-04-11T06:12:26.001Z,44.90
2023-04-11T06:13:29.135Z,44.70
2023-04-11T06:14:32.118Z,44.70
2023-04-11T06:15:34.669Z,44.60
2023-04-11T06:16:38.701Z,44.80
2023-04-11T06:17:41.116Z,44.50
2023-04-11T06:18:43.532Z,43.90
2023-04-11T06:19:45.900Z,43.80
2023-04-11T06:20:49.521Z,44.20
2023-04-11T06:21:52.051Z,43.60
2023-04-11T06:22:54.475Z,43.50
2023-04-11T06:23:57.636Z,43.50
2023-04-11T06:25:00.385Z,44.20
2023-04-11T06:26:03.371Z,44.00
2023-04-11T06:27:06.528Z,43.80
2023-04-11T06:28:08.972Z,43.80
2023-04-11T06:29:11.385Z,43.90
2023-04-11T06:30:14.526Z,43.60
2023-04-11T06:31:16.975Z,43.50
2023-04-11T06:32:19.767Z,43.50
2023-04-11T06:33:22.135Z,43.30
2023-04-11T06:34:24.610Z,43.30
2023-04-11T06:35:26.920Z,43.30
2023-04-11T06:36:30.460Z,43.20
2023-04-11T06:37:32.998Z,43.20
2023-04-11T06:38:36.568Z,43.20
2023-04-11T06:39:39.054Z,43.10
2023-04-11T06:40:41.442Z,43.20
2023-04-11T06:41:43.724Z,43.10
2023-04-11T06:42:48.995Z,43.10
2023-04-11T06:43:51.424Z,43.20
2023-04-11T06:44:53.820Z,43.20
2023-04-11T06:45:56.259Z,43.10
2023-04-11T06:46:59.392Z,43.20
2023-04-11T06:48:01.967Z,43.10
2023-04-11T06:49:07.147Z,43.10
2023-04-11T06:50:10.038Z,43.20
2023-04-11T06:51:12.405Z,43.10
2023-04-11T06:52:14.786Z,43.10
2023-04-11T06:53:17.287Z,43.40
2023-04-11T06:54:19.845Z,43.30
2023-04-11T06:55:22.915Z,43.30
2023-04-11T06:56:25.831Z,43.40
2023-04-11T06:57:29.205Z,43.40
2023-04-11T06:58:31.518Z,43.30
2023-04-11T06:59:34.811Z,43.10
2023-04-11T07:00:37.498Z,43.20
2023-04-11T07:01:40.557Z,43.20
2023-04-11T07:02:44.744Z,43.20
2023-04-11T07:03:47.771Z,43.20
2023-04-11T07:04:50.421Z,43.10
2023-04-11T07:05:53.384Z,43.30
2023-04-11T07:06:55.811Z,43.20
2023-04-11T07:07:58.317Z,43.10
2023-04-11T07:09:01.320Z,43.20
2023-04-11T07:10:04.989Z,43.20
2023-04-11T07:11:07.607Z,43.20
2023-04-11T07:12:10.342Z,43.40
2023-04-11T07:13:12.845Z,43.50
2023-04-11T07:14:15.598Z,43.40
2023-04-11T07:15:18.366Z,43.40
2023-04-11T07:16:20.917Z,42.40
2023-04-11T07:17:23.610Z,42.60
2023-04-11T07:18:27.314Z,43.50
2023-04-11T07:19:29.869Z,43.50
2023-04-11T07:20:33.474Z,43.80
2023-04-11T07:21:38.109Z,44.80
2023-04-11T07:22:43.346Z,44.30
2023-04-11T07:23:45.863Z,43.90
2023-04-11T07:24:52.051Z,44.70
2023-04-11T07:25:55.531Z,44.70
2023-04-11T07:27:01.830Z,44.70
2023-04-11T07:28:08.558Z,45.10
2023-04-11T07:29:13.093Z,44.30
2023-04-11T07:30:17.650Z,44.50
2023-04-11T07:31:21.501Z,44.60
2023-04-11T07:32:24.715Z,43.90
2023-04-11T07:33:27.429Z,43.60
2023-04-11T07:34:30.022Z,43.50
2023-04-11T07:35:34.593Z,43.60
2023-04-11T07:36:37.165Z,43.70
2023-04-11T07:37:40.169Z,43.70
2023-04-11T07:38:42.793Z,43.60
2023-04-11T07:39:45.284Z,43.70
2023-04-11T07:40:47.763Z,43.70
2023-04-11T07:41:50.160Z,43.80
2023-04-11T07:42:52.601Z,43.70
2023-04-11T07:43:56.360Z,43.70
2023-04-11T07:44:59.330Z,43.70
2023-04-11T07:46:01.896Z,43.60
2023-04-11T07:47:04.416Z,43.80
2023-04-11T07:48:07.015Z,43.70
2023-04-11T07:49:09.595Z,43.60
2023-04-11T07:50:12.130Z,43.60
2023-04-11T07:51:14.708Z,43.60
2023-04-11T07:52:17.461Z,43.60
2023-04-11T07:53:19.935Z,43.80
2023-04-11T07:54:25.039Z,43.60
2023-04-11T07:55:27.407Z,43.80
2023-04-11T07:56:29.766Z,43.70
2023-04-11T07:57:32.301Z,43.50
2023-04-11T07:58:34.738Z,42.40
2023-04-11T07:59:37.181Z,41.70
2023-04-11T08:00:39.582Z,41.10
2023-04-11T08:01:41.980Z,41.70
2023-04-11T08:02:44.521Z,42.30
2023-04-11T08:03:47.340Z,42.30
2023-04-11T08:04:50.092Z,42.40
2023-04-11T08:05:53.129Z,43.10
2023-04-11T08:06:56.953Z,43.20
2023-04-11T08:08:00.071Z,42.80
2023-04-11T08:09:02.790Z,42.40
2023-04-11T08:10:07.327Z,42.60
2023-04-11T08:11:09.940Z,42.50
2023-04-11T08:12:12.720Z,42.60
2023-04-11T08:13:16.281Z,42.50
2023-04-11T08:14:19.122Z,42.70
2023-04-11T08:15:22.041Z,42.90
2023-04-11T08:16:24.812Z,42.50
2023-04-11T08:17:29.339Z,42.80
2023-04-11T08:18:33.658Z,42.70
2023-04-11T08:19:38.035Z,42.70
2023-04-11T08:20:41.116Z,42.80
2023-04-11T08:21:43.929Z,42.40
2023-04-11T08:22:47.036Z,42.20
2023-04-11T08:23:52.483Z,42.80
2023-04-11T08:24:54.988Z,42.30
2023-04-11T08:25:57.579Z,42.30
2023-04-11T08:27:00.313Z,42.30
2023-04-11T08:28:02.964Z,43.10
2023-04-11T08:29:05.466Z,43.10
2023-04-11T08:30:08.725Z,42.70
2023-04-11T08:31:12.823Z,42.60
2023-04-11T08:32:16.042Z,42.80
2023-04-11T08:33:20.640Z,42.90
2023-04-11T08:34:23.053Z,42.80
2023-04-11T08:35:26.165Z,42.00
2023-04-11T08:36:28.618Z,41.90
2023-04-11T08:37:31.358Z,41.90
2023-04-11T08:38:33.893Z,41.90
2023-04-11T08:39:36.486Z,42.10
2023-04-11T08:40:38.771Z,43.10
2023-04-11T08:41:41.631Z,42.90
2023-04-11T08:42:44.665Z,43.00
2023-04-11T08:43:48.198Z,43.50
2023-04-11T08:44:54.246Z,43.40
2023-04-11T08:45:56.976Z,43.40
2023-04-11T08:47:00.423Z,43.50
2023-04-11T08:48:09.450Z,43.50
2023-04-11T08:49:12.188Z,42.90
2023-04-11T08:50:14.606Z,42.90
2023-04-11T08:51:22.687Z,43.20
2023-04-11T08:52:25.383Z,43.10
2023-04-11T08:53:29.426Z,43.00
2023-04-11T08:54:31.901Z,43.00
2023-04-11T08:55:34.689Z,42.90
2023-04-11T08:56:42.042Z,43.00
2023-04-11T08:57:44.606Z,43.00
2023-04-11T08:58:48.045Z,42.90
2023-04-11T08:59:51.277Z,43.00
2023-04-11T09:00:53.674Z,42.80
2023-04-11T09:02:09.765Z,42.70
2023-04-11T09:03:15.203Z,42.60
2023-04-11T09:04:17.728Z,42.50
2023-04-11T09:05:26.786Z,42.50
2023-04-11T09:06:30.687Z,42.50
2023-04-11T09:07:50.120Z,42.60
2023-04-11T09:08:52.492Z,42.70
2023-04-11T09:09:54.878Z,42.70
2023-04-11T09:11:01.322Z,42.70
2023-04-11T09:12:04.472Z,42.70
2023-04-11T09:13:23.150Z,42.80
2023-04-11T09:14:28.304Z,42.80
2023-04-11T09:15:31.841Z,42.50
2023-04-11T09:16:34.908Z,42.50
2023-04-11T09:17:42.366Z,42.40
2023-04-11T09:18:47.061Z,42.70
2023-04-11T09:19:49.775Z,42.60
2023-04-11T09:21:00.902Z,42.60
2023-04-11T09:22:07.590Z,42.70
2023-04-11T09:23:24.341Z,42.80
2023-04-11T09:24:31.331Z,42.80
2023-04-11T09:25:44.731Z,43.20
2023-04-11T09:26:47.528Z,43.00
2023-04-11T09:28:06.601Z,43.10
2023-04-11T09:29:10.090Z,42.90
2023-04-11T09:30:33.186Z,42.70
2023-04-11T09:31:45.462Z,42.70
2023-04-11T09:32:49.728Z,42.90
2023-04-11T09:33:54.732Z,42.70
2023-04-11T09:35:18.631Z,43.00
2023-04-11T09:36:24.591Z,41.40
2023-04-11T09:37:41.134Z,41.70
2023-04-11T09:38:44.146Z,42.50
2023-04-11T09:40:00.270Z,42.60
2023-04-11T09:41:04.573Z,42.60
2023-04-11T09:42:29.077Z,42.20
2023-04-11T09:43:55.500Z,43.00
2023-04-11T09:44:58.474Z,42.70
2023-04-11T09:46:11.984Z,42.50
2023-04-11T09:47:14.730Z,42.60
2023-04-11T09:48:17.801Z,43.00
2023-04-11T09:49:20.889Z,42.50
2023-04-11T09:50:24.633Z,43.00
2023-04-11T09:51:36.394Z,42.80
2023-04-11T09:52:43.733Z,42.60
2023-04-11T09:53:46.327Z,42.70
2023-04-11T09:54:50.966Z,43.00
2023-04-11T09:55:54.389Z,43.00
2023-04-11T09:56:58.344Z,42.90
2023-04-11T09:58:01.222Z,43.00
2023-04-11T09:59:05.103Z,43.40
2023-04-11T10:00:16.725Z,43.10
2023-04-11T10:01:20.363Z,43.30
2023-04-11T10:02:22.869Z,43.30
2023-04-11T10:03:35.490Z,43.20
2023-04-11T10:04:40.731Z,43.40
2023-04-11T10:05:45.255Z,43.40
2023-04-11T10:07:10.895Z,43.50
2023-04-11T10:08:28.329Z,43.00
2023-04-11T10:09:32.405Z,41.20
2023-04-11T10:10:36.233Z,42.00
2023-04-11T10:11:43.288Z,43.20
2023-04-11T10:12:46.501Z,43.10
2023-04-11T10:13:50.204Z,41.60
2023-04-11T10:14:56.142Z,43.10
2023-04-11T10:16:14.616Z,43.50
2023-04-11T10:17:22.164Z,44.10
2023-04-11T10:18:26.540Z,43.40
2023-04-11T10:19:29.209Z,42.60
2023-04-11T10:20:31.839Z,42.00
2023-04-11T10:21:34.614Z,41.50
2023-04-11T10:22:43.947Z,40.90
2023-04-11T10:24:14.168Z,41.30
2023-04-11T10:25:20.764Z,42.30
2023-04-11T10:26:45.995Z,42.30
2023-04-11T10:27:50.406Z,41.80
2023-04-11T10:28:52.907Z,42.10
2023-04-11T10:29:55.733Z,41.90
2023-04-11T10:31:07.087Z,41.50
2023-04-11T10:32:13.302Z,40.70
2023-04-11T10:33:17.991Z,42.90
2023-04-11T10:34:20.632Z,42.50
2023-04-11T10:35:23.703Z,42.60
2023-04-11T10:36:26.617Z,41.60
2023-04-11T10:37:36.651Z,41.20
2023-04-11T10:38:43.150Z,41.60
2023-04-11T10:39:52.058Z,40.70
2023-04-11T10:41:17.556Z,40.40
2023-04-11T10:42:27.708Z,41.10
2023-04-11T10:43:31.211Z,40.60
2023-04-11T10:44:33.664Z,41.90
2023-04-11T10:45:40.218Z,41.90
2023-04-11T10:46:47.672Z,39.50
2023-04-11T10:48:03.545Z,38.90
2023-04-11T10:49:06.119Z,39.00
2023-04-11T10:50:37.812Z,40.20
2023-04-11T10:51:40.765Z,39.10
2023-04-11T10:52:44.524Z,40.70
2023-04-11T10:53:47.487Z,39.10
2023-04-11T10:54:54.035Z,40.30
2023-04-11T10:55:56.460Z,41.00
2023-04-11T10:56:59.273Z,41.20
2023-04-11T10:58:08.291Z,41.40
2023-04-11T10:59:32.637Z,41.70
2023-04-11T11:01:00.119Z,41.90
2023-04-11T11:02:03.242Z,42.40
2023-04-11T11:03:30.727Z,42.80
2023-04-11T11:04:37.724Z,42.60
2023-04-11T11:05:40.594Z,42.30
2023-04-11T11:06:51.150Z,42.30
2023-04-11T11:08:01.803Z,42.30
2023-04-11T11:09:22.020Z,42.40
2023-04-11T11:10:48.661Z,42.50
2023-04-11T11:12:13.749Z,42.50
2023-04-11T11:13:16.921Z,42.50
2023-04-11T11:14:30.163Z,42.60
2023-04-11T11:15:37.498Z,42.80
2023-04-11T11:16:46.382Z,42.80
2023-04-11T11:17:49.022Z,43.50
2023-04-11T11:18:53.393Z,43.30
2023-04-11T11:19:55.770Z,43.30
2023-04-11T11:20:58.340Z,44.60
2023-04-11T11:22:06.170Z,43.80
2023-04-11T11:23:10.295Z,44.50
2023-04-11T11:24:12.892Z,43.40
2023-04-11T11:25:15.205Z,43.00
2023-04-11T11:26:17.990Z,42.90
2023-04-11T11:27:24.818Z,44.10
2023-04-11T11:29:34.685Z,43.30
2023-04-11T11:30:38.356Z,43.80
2023-04-11T11:31:46.047Z,45.00
2023-04-11T11:32:48.783Z,43.80
2023-04-11T11:33:51.892Z,47.90
2023-04-11T11:34:55.527Z,46.60
2023-04-11T11:36:02.334Z,47.50
2023-04-11T11:37:05.720Z,52.00
2023-04-11T11:38:08.326Z,50.50
2023-04-11T11:39:12.106Z,51.10
2023-04-11T11:40:14.666Z,49.50
2023-04-11T11:41:17.783Z,52.80
2023-04-11T11:42:20.941Z,47.60
2023-04-11T11:43:24.640Z,42.70
2023-04-11T11:44:28.972Z,44.70
2023-04-11T11:45:33.659Z,46.40
2023-04-11T11:46:36.286Z,46.50
2023-04-11T11:47:45.941Z,47.30
2023-04-11T11:49:06.886Z,48.40
2023-04-11T11:50:09.595Z,46.30
2023-04-11T11:51:12.016Z,46.70
2023-04-11T11:52:33.736Z,46.30
2023-04-11T11:53:36.452Z,46.00
2023-04-11T11:54:46.488Z,45.60
2023-04-11T11:55:49.513Z,45.50
2023-04-11T11:56:53.015Z,45.70
2023-04-11T11:58:00.885Z,45.70
2023-04-11T11:59:05.069Z,45.80
2023-04-11T12:00:11.633Z,45.60
2023-04-11T12:01:18.142Z,45.70
2023-04-11T12:02:23.865Z,45.50
2023-04-11T12:03:29.609Z,46.10
2023-04-11T12:04:33.318Z,45.50
2023-04-11T12:05:37.795Z,46.50
2023-04-11T12:06:40.358Z,45.10
2023-04-11T12:07:43.583Z,45.80
2023-04-11T12:08:51.633Z,44.90
2023-04-11T12:10:02.430Z,44.80
2023-04-11T12:11:12.288Z,44.90
2023-04-11T12:12:17.156Z,45.40
2023-04-11T12:13:25.457Z,45.10
2023-04-11T12:14:29.451Z,45.80
2023-04-11T12:15:35.750Z,47.50
2023-04-11T12:16:38.813Z,45.80
2023-04-11T12:17:41.776Z,45.80
2023-04-11T12:18:45.516Z,45.00
2023-04-11T12:19:48.118Z,45.10
2023-04-11T12:20:51.300Z,45.50
2023-04-11T12:21:53.754Z,46.20
2023-04-11T12:22:56.504Z,45.70
2023-04-11T12:23:59.869Z,46.00
2023-04-11T12:25:11.295Z,45.30
2023-04-11T12:26:13.988Z,45.40
2023-04-11T12:27:16.947Z,45.40
2023-04-11T12:28:19.443Z,45.60
2023-04-11T12:29:21.929Z,45.10
2023-04-11T12:30:25.085Z,45.60
2023-04-11T12:31:27.570Z,45.40
2023-04-11T12:32:30.492Z,45.60
2023-04-11T12:33:33.035Z,45.30
2023-04-11T12:34:35.714Z,45.10
2023-04-11T12:35:38.325Z,45.60
2023-04-11T12:36:40.802Z,45.80
2023-04-11T12:37:44.592Z,45.70
2023-04-11T12:38:47.383Z,46.20
2023-04-11T12:39:49.780Z,45.70
2023-04-11T12:41:00.414Z,45.90
2023-04-11T12:42:11.806Z,45.90
2023-04-11T12:43:14.345Z,45.60
2023-04-11T12:44:17.360Z,45.70
2023-04-11T12:45:24.003Z,45.40
2023-04-11T12:46:27.028Z,45.60
2023-04-11T12:47:29.616Z,45.70
2023-04-11T12:48:31.991Z,46.20
2023-04-11T12:49:34.311Z,45.80
2023-04-11T12:50:36.644Z,45.80
2023-04-11T12:51:39.078Z,45.60
2023-04-11T12:52:41.864Z,45.50
2023-04-11T12:53:44.262Z,45.50
2023-04-11T12:54:46.798Z,45.40
2023-04-11T12:55:49.264Z,45.50
2023-04-11T12:56:51.810Z,45.40
2023-04-11T12:57:54.222Z,45.30
2023-04-11T12:58:57.054Z,45.00
2023-04-11T13:00:00.210Z,45.40
2023-04-11T13:01:02.890Z,45.30
2023-04-11T13:02:05.474Z,45.50
2023-04-11T13:03:08.577Z,46.00
2023-04-11T13:04:11.305Z,45.30
2023-04-11T13:05:15.628Z,45.60
2023-04-11T13:06:19.533Z,42.00
2023-04-11T13:07:22.044Z,41.60
2023-04-11T13:08:24.492Z,38.60
2023-04-11T13:09:34.071Z,39.50
2023-04-11T13:10:36.500Z,39.50
2023-04-11T13:11:38.975Z,38.20
2023-04-11T13:12:44.222Z,38.10
2023-04-11T13:13:46.893Z,39.50
2023-04-11T13:14:49.241Z,41.30
2023-04-11T13:15:51.589Z,43.30
2023-04-11T13:16:54.036Z,47.40
2023-04-11T13:17:56.458Z,49.20
2023-04-11T13:18:58.965Z,49.20
2023-04-11T13:20:01.420Z,49.70
2023-04-11T13:21:04.002Z,50.00
2023-04-11T13:22:06.432Z,50.00
2023-04-11T13:23:10.441Z,50.60
2023-04-11T13:24:13.590Z,50.60
2023-04-11T13:25:16.171Z,50.30
2023-04-11T13:26:19.950Z,50.40
2023-04-11T13:27:23.027Z,47.60
2023-04-11T13:28:25.500Z,49.00
2023-04-11T13:29:35.375Z,46.90
2023-04-11T13:30:38.021Z,47.80
2023-04-11T13:31:40.631Z,46.70
2023-04-11T13:32:43.182Z,47.00
2023-04-11T13:33:48.300Z,46.50
2023-04-11T13:34:51.472Z,46.00
2023-04-11T13:35:53.879Z,40.70
2023-04-11T13:36:56.252Z,40.00
2023-04-11T13:38:00.233Z,39.80
2023-04-11T13:39:02.898Z,40.90
2023-04-11T13:40:11.291Z,39.30
2023-04-11T13:41:14.868Z,40.10
2023-04-11T13:42:17.561Z,42.00
2023-04-11T13:43:20.433Z,42.80
2023-04-11T13:44:22.985Z,42.00
2023-04-11T13:45:25.550Z,40.40
2023-04-11T13:46:28.043Z,40.40
2023-04-11T13:47:30.906Z,39.90
2023-04-11T13:48:33.550Z,40.20
2023-04-11T13:49:36.041Z,40.50
2023-04-11T13:50:38.510Z,40.50
2023-04-11T13:51:42.031Z,40.30
2023-04-11T13:52:44.477Z,39.80
2023-04-11T13:53:46.934Z,40.00
2023-04-11T13:54:50.197Z,40.60
2023-04-11T13:55:52.744Z,41.90
2023-04-11T13:56:56.407Z,40.10